Surface Preassure
0:00 UTC
12:00 UTC (Click for larger versions)
Andrewsfield Outlook

Current time:


  02:01:10pm (GMT)      02:01:10pm (UTC)


Headline: Turning wet overnight. Further rain or showers tomorrow.

This Evening and Tonight: Thickening cloud through the evening with showery outbreaks of rain developing towards midnight. The rain becoming more persistent and heavier by dawn, especially over the Pennines. Minimum Temperature 12C.

Tuesday: Mostly cloudy with outbreaks of rain, some heavy, especially over the Pennines. The rain becoming more showery through the afternoon and evening, though still some heavier bursts possible. Feeling cool. Maximum Temperature 16C.

Outlook for Wednesday to Friday: Further rain or showers on all days, heavy at times, although perhaps drier Thursday. Windy at times, especially by Friday and temperatures will be on the cool side.

Forecast

Weather warnings

Nearby METAR/TAF

Stansted (EGSS)


Current conditions: VFR

METAR: EGSS 261350Z AUTO 06005KT 340V110 9999 NCD 21/07 Q1014

TAF: TAF EGSS 261103Z 2612/2718 35005KT 9999 SCT045 BECMG 2618/2621 10010KT TEMPO 2709/2718 7000 SHRA PROB30 TEMPO 2712/2718 4000 +SHRA

Southend (EGMC)


Current conditions: VFR

METAR: EGMC 261350Z 12010KT 9999 FEW048 20/06 Q1014

TAF: TAF EGMC 261102Z 2612/2621 02005KT 9999 SCT045 BECMG 2612/2615 12010KT

RAF Wattisham (EGUW)


Current conditions: VFR

METAR: EGUW 261250Z 36006KT CAVOK 19/05 Q1014 BLU NOSIG

TAF: TAF EGUW 261038Z 2612/2621 32005KT CAVOK